createdAt,value
2023-05-10T00:03:37.134Z,100276.63
2023-05-10T00:08:49.085Z,100271.44
2023-05-10T00:13:53.219Z,100260.16
2023-05-10T00:18:57.149Z,100261.94
2023-05-10T00:23:58.649Z,100273.16
2023-05-10T00:29:00.839Z,100272.28
2023-05-10T00:34:02.464Z,100263.59
2023-05-10T00:39:04.654Z,100262.78
2023-05-10T00:44:06.380Z,100261.91
2023-05-10T00:49:07.870Z,100256.69
2023-05-10T00:54:12.070Z,100235.97
2023-05-10T00:59:13.548Z,100228.22
2023-05-10T01:04:15.763Z,100223.91
2023-05-10T01:09:17.222Z,100216.97
2023-05-10T01:14:20.767Z,100218.72
2023-05-10T01:19:29.081Z,100215.25
2023-05-10T01:24:55.273Z,100204.91
2023-05-10T01:30:14.659Z,100165.16
2023-05-10T01:35:18.726Z,100142.66
2023-05-10T01:40:31.280Z,100144.41
2023-05-10T01:45:46.568Z,100134.91
2023-05-10T01:50:51.964Z,100134.03
2023-05-10T01:55:56.151Z,100141.78
2023-05-10T02:01:01.699Z,100140.97
2023-05-10T02:06:04.508Z,100140.94
2023-05-10T02:11:06.725Z,100153.91
2023-05-10T02:16:08.493Z,100162.53
2023-05-10T02:21:11.332Z,100161.69
2023-05-10T02:26:14.827Z,100170.31
2023-05-10T02:31:16.931Z,100183.28
2023-05-10T02:36:21.010Z,100191.94
2023-05-10T02:41:24.159Z,100191.94
2023-05-10T02:46:25.838Z,100186.75
2023-05-10T02:51:32.630Z,100191.94
2023-05-10T02:56:36.798Z,100194.53
2023-05-10T03:01:38.353Z,100203.13
2023-05-10T03:06:40.772Z,100205.72
2023-05-10T03:12:02.900Z,100208.34
2023-05-10T03:17:12.600Z,100204.00
2023-05-10T03:22:18.880Z,100219.56
2023-05-10T03:27:21.292Z,100218.72
2023-05-10T03:32:23.755Z,100228.19
2023-05-10T03:37:25.245Z,100223.88
2023-05-10T03:42:26.696Z,100225.59
2023-05-10T03:47:28.264Z,100238.53
2023-05-10T03:52:29.765Z,100241.16
2023-05-10T03:57:31.245Z,100244.59
2023-05-10T04:02:32.830Z,100250.66
2023-05-10T04:07:34.492Z,100253.22
2023-05-10T04:12:35.971Z,100261.88
2023-05-10T04:17:37.561Z,100266.16
2023-05-10T04:22:39.237Z,100267.91
2023-05-10T04:27:40.672Z,100260.13
2023-05-10T04:32:42.214Z,100269.63
2023-05-10T04:37:44.151Z,100273.94
2023-05-10T04:42:45.575Z,100274.81
2023-05-10T04:47:47.017Z,100273.09
2023-05-10T04:52:48.482Z,100273.09
2023-05-10T04:57:49.951Z,100279.13
2023-05-10T05:02:51.445Z,100287.78
2023-05-10T05:07:53.083Z,100289.50
2023-05-10T05:12:54.515Z,100291.22
2023-05-10T05:17:56.087Z,100287.78
2023-05-10T05:22:57.577Z,100295.59
2023-05-10T05:27:59.046Z,100298.16
2023-05-10T05:33:00.632Z,100305.06
2023-05-10T05:38:02.179Z,100300.75
2023-05-10T05:43:03.577Z,100302.50
2023-05-10T05:48:05.615Z,100305.09
2023-05-10T05:53:07.110Z,100312.84
2023-05-10T05:58:08.523Z,100322.34
2023-05-10T06:03:10.042Z,100326.66
2023-05-10T06:08:11.696Z,100338.78
2023-05-10T06:13:13.246Z,100334.47
2023-05-10T06:18:14.748Z,100343.94
2023-05-10T06:23:16.352Z,100346.53
2023-05-10T06:28:17.866Z,100356.06
2023-05-10T06:33:19.376Z,100360.41
2023-05-10T06:38:20.789Z,100362.13
2023-05-10T06:43:22.317Z,100366.47
2023-05-10T06:48:24.098Z,100368.22
2023-05-10T06:53:25.544Z,100370.78
2023-05-10T06:58:27.085Z,100376.84
2023-05-10T07:03:28.485Z,100378.56
2023-05-10T07:08:31.369Z,100391.50
2023-05-10T07:13:32.955Z,100392.41
2023-05-10T07:18:35.006Z,100391.56
2023-05-10T07:23:36.547Z,100404.53
2023-05-10T07:28:38.603Z,100406.22
2023-05-10T07:33:40.963Z,100414.88
2023-05-10T07:38:42.375Z,100414.88
2023-05-10T07:43:43.847Z,100420.97
2023-05-10T07:48:45.256Z,100423.59
2023-05-10T07:53:46.686Z,100434.81
2023-05-10T07:58:48.236Z,100435.66
2023-05-10T08:03:50.179Z,100440.84
2023-05-10T08:08:52.434Z,100458.16
2023-05-10T08:13:53.971Z,100469.44
2023-05-10T08:18:56.384Z,100482.38
2023-05-10T08:23:58.762Z,100491.06
2023-05-10T08:29:00.222Z,100506.59
2023-05-10T08:34:01.774Z,100515.25
2023-05-10T08:39:03.335Z,100520.44
2023-05-10T08:44:06.456Z,100531.72
2023-05-10T08:49:11.277Z,100542.97
2023-05-10T08:54:13.512Z,100560.28
2023-05-10T08:59:15.207Z,100565.50
2023-05-10T09:04:16.822Z,100568.97
2023-05-10T09:09:19.522Z,100591.47
2023-05-10T09:14:21.397Z,100600.13
2023-05-10T09:19:22.967Z,100620.94
2023-05-10T09:24:30.450Z,100636.50
2023-05-10T09:29:43.827Z,100659.03
2023-05-10T09:34:45.954Z,100691.97
2023-05-10T09:39:47.397Z,100711.03
2023-05-10T09:44:49.009Z,100719.69
2023-05-10T09:49:52.118Z,100734.44
2023-05-10T09:54:55.423Z,100750.88
2023-05-10T09:59:58.490Z,100769.97
2023-05-10T10:05:04.153Z,100773.44
2023-05-10T10:10:06.826Z,100783.84
2023-05-10T10:15:10.470Z,100795.09
2023-05-10T10:20:12.493Z,100795.97
2023-05-10T10:25:16.355Z,100804.63
2023-05-10T10:30:36.565Z,100818.53
2023-05-10T10:35:38.368Z,100800.31
2023-05-10T10:40:39.896Z,100778.63
2023-05-10T10:45:42.190Z,100740.47
2023-05-10T10:50:47.831Z,100711.78
2023-05-10T10:55:49.812Z,100709.13
2023-05-10T11:00:51.497Z,100702.28
2023-05-10T11:05:59.514Z,100704.84
2023-05-10T11:11:00.984Z,100704.03
2023-05-10T11:16:17.909Z,100719.63
2023-05-10T11:21:19.769Z,100718.69
2023-05-10T11:26:26.533Z,100722.16
2023-05-10T11:31:28.731Z,100729.97
2023-05-10T11:36:35.095Z,100727.34
2023-05-10T11:41:36.587Z,100731.66
2023-05-10T11:46:38.092Z,100731.56
2023-05-10T11:51:44.553Z,100733.25
2023-05-10T11:56:46.477Z,100728.66
2023-05-10T12:01:48.085Z,100728.78
2023-05-10T12:06:49.698Z,100737.47
2023-05-10T12:11:57.935Z,100735.56
2023-05-10T12:16:59.397Z,100739.00
2023-05-10T12:22:01.039Z,100748.50
2023-05-10T12:32:46.998Z,100743.25
2023-05-10T12:37:49.108Z,100741.31
2023-05-10T12:42:53.087Z,100751.69
2023-05-10T12:47:54.699Z,100759.38
2023-05-10T12:52:56.186Z,100753.06
2023-05-10T12:57:57.781Z,100761.06
2023-05-10T13:02:59.218Z,100764.44
2023-05-10T13:08:00.702Z,100763.19
2023-05-10T13:13:02.089Z,100777.50
2023-05-10T13:18:03.703Z,100787.09
2023-05-10T13:23:05.383Z,100799.91
2023-05-10T13:28:06.962Z,100817.44
2023-05-10T13:33:08.403Z,100833.19
2023-05-10T13:38:10.293Z,100835.78
2023-05-10T13:43:11.842Z,100839.34
2023-05-10T13:48:13.262Z,100845.41
2023-05-10T13:53:15.394Z,100846.25
2023-05-10T13:58:16.836Z,100854.09
2023-05-10T14:03:18.515Z,100853.22
2023-05-10T14:08:20.068Z,100848.03
2023-05-10T14:13:21.531Z,100841.00
2023-05-10T14:18:23.068Z,100841.03
2023-05-10T14:23:29.476Z,100841.84
2023-05-10T14:28:30.981Z,100847.00
2023-05-10T14:33:32.422Z,100848.78
2023-05-10T14:38:34.848Z,100853.97
2023-05-10T14:43:37.268Z,100841.88
2023-05-10T14:48:38.648Z,100843.56
2023-05-10T14:53:40.084Z,100839.22
2023-05-10T14:58:41.475Z,100839.31
2023-05-10T15:03:42.883Z,100841.91
2023-05-10T15:08:44.676Z,100841.06
2023-05-10T15:13:46.125Z,100837.59
2023-05-10T15:18:47.631Z,100840.19
2023-05-10T15:23:49.097Z,100846.28
2023-05-10T15:28:50.563Z,100855.81
2023-05-10T15:33:52.220Z,100847.97
2023-05-10T15:38:56.892Z,100852.31
2023-05-10T15:44:00.690Z,100860.19
2023-05-10T15:49:02.494Z,100848.84
2023-05-10T15:54:07.771Z,100842.72
2023-05-10T15:59:11.602Z,100848.00
2023-05-10T16:04:15.766Z,100834.94
2023-05-10T16:09:17.309Z,100830.53
2023-05-10T16:14:20.471Z,100838.44
2023-05-10T16:19:22.397Z,100831.34
2023-05-10T16:24:24.144Z,100830.41
2023-05-10T16:29:26.328Z,100842.72
2023-05-10T16:34:27.782Z,100840.94
2023-05-10T16:39:29.261Z,100852.28
2023-05-10T16:44:30.710Z,100854.00
2023-05-10T16:49:32.268Z,100853.81
2023-05-10T16:54:33.706Z,100859.91
2023-05-10T16:59:35.122Z,100862.44
2023-05-10T17:04:36.691Z,100864.13
2023-05-10T17:09:38.090Z,100869.41
2023-05-10T17:14:40.128Z,100868.50
2023-05-10T17:19:44.954Z,100883.38
2023-05-10T17:24:46.549Z,100894.69
2023-05-10T17:29:47.966Z,100904.28
2023-05-10T17:34:49.400Z,100905.22
2023-05-10T17:39:50.829Z,100909.53
2023-05-10T17:44:52.354Z,100918.25
2023-05-10T17:49:54.721Z,100919.97
2023-05-10T17:54:56.326Z,100924.28
2023-05-10T17:59:57.814Z,100935.66
2023-05-10T18:05:01.323Z,100936.53
2023-05-10T18:10:02.885Z,100933.94
2023-05-10T18:15:04.683Z,100936.53
2023-05-10T18:20:07.356Z,100945.22
2023-05-10T18:25:09.290Z,100939.13
2023-05-10T18:30:12.478Z,100940.88
2023-05-10T18:35:14.470Z,100939.13
2023-05-10T18:40:17.906Z,100943.44
2023-05-10T18:45:20.199Z,100939.09
2023-05-10T18:50:22.535Z,100938.22
2023-05-10T18:55:25.799Z,100934.75
2023-05-10T19:00:27.385Z,100934.75
2023-05-10T19:05:31.621Z,100949.50
2023-05-10T19:10:44.679Z,100950.34
2023-05-10T19:15:52.085Z,100954.66
2023-05-10T19:21:11.481Z,100971.94
2023-05-10T19:26:16.140Z,100982.31
2023-05-10T19:31:18.037Z,100967.53
2023-05-10T19:36:28.234Z,100957.97
2023-05-10T19:41:31.126Z,100947.59
2023-05-10T19:46:35.812Z,100932.81
2023-05-10T19:51:37.537Z,100935.41
2023-05-10T19:56:39.270Z,100923.16
2023-05-10T20:01:40.780Z,100927.47
2023-05-10T20:06:43.554Z,100939.63
2023-05-10T20:11:46.589Z,100938.75
2023-05-10T20:16:48.551Z,100943.97
2023-05-10T20:21:50.362Z,100946.56
2023-05-10T20:26:52.025Z,100946.59
2023-05-10T20:31:54.013Z,100942.16
2023-05-10T20:36:58.698Z,100944.75
2023-05-10T20:42:00.654Z,100955.13
2023-05-10T20:47:02.579Z,100966.25
2023-05-10T20:52:06.616Z,100966.13
2023-05-10T20:57:11.253Z,100969.56
2023-05-10T21:02:13.373Z,100969.63
2023-05-10T21:07:15.363Z,100966.00
2023-05-10T21:12:18.532Z,100964.25
2023-05-10T21:17:21.612Z,100964.25
2023-05-10T21:22:24.448Z,100957.31
2023-05-10T21:27:28.546Z,100962.56
2023-05-10T21:32:32.473Z,100971.13
2023-05-10T21:37:34.153Z,100972.88
2023-05-10T21:42:42.377Z,100982.28
2023-05-10T21:47:48.620Z,100983.97
2023-05-10T21:52:50.435Z,100989.09
2023-05-10T21:57:51.984Z,100989.09
2023-05-10T22:02:59.526Z,100988.16
2023-05-10T22:08:05.715Z,100984.72
2023-05-10T22:13:14.672Z,100987.28
2023-05-10T22:18:19.303Z,100988.00
2023-05-10T22:23:23.303Z,100980.97
2023-05-10T22:28:24.897Z,100981.16
2023-05-10T22:33:30.774Z,100982.00
2023-05-10T22:38:35.234Z,100988.94
2023-05-10T22:43:36.843Z,100991.56
2023-05-10T22:48:38.531Z,100988.03
2023-05-10T22:53:40.091Z,100994.97
2023-05-10T22:58:41.744Z,100989.84
2023-05-10T23:03:43.415Z,101001.81
2023-05-10T23:08:46.416Z,100997.50
2023-05-10T23:13:50.832Z,100996.63
2023-05-10T23:18:52.441Z,100993.19
2023-05-10T23:23:54.865Z,101000.91
2023-05-10T23:28:56.460Z,101008.59
2023-05-10T23:34:00.117Z,101005.09
2023-05-10T23:39:02.843Z,101003.41
2023-05-10T23:44:04.690Z,100993.94
2023-05-10T23:49:06.320Z,100994.84
2023-05-10T23:54:09.362Z,100992.19
2023-05-10T23:59:11.134Z,100992.25
